createdAt,value
2023-05-03T00:04:43.876Z,324.93
2023-05-03T00:10:41.716Z,324.54
2023-05-03T00:22:17.789Z,324.50
2023-05-03T00:41:06.300Z,324.69
2023-05-03T00:46:48.697Z,325.56
2023-05-03T00:52:36.231Z,325.19
2023-05-03T01:03:56.491Z,325.89
2023-05-03T01:09:09.158Z,326.06
2023-05-03T01:14:56.278Z,326.10
2023-05-03T01:20:19.369Z,326.69
2023-05-03T01:25:55.281Z,326.91
2023-05-03T01:31:21.779Z,327.01
2023-05-03T01:52:31.446Z,326.17
2023-05-03T01:57:56.761Z,326.54
2023-05-03T02:03:15.535Z,326.42
2023-05-03T02:08:53.668Z,325.91
2023-05-03T02:14:01.174Z,325.51
2023-05-03T02:19:09.109Z,325.67
2023-05-03T02:24:21.279Z,324.98
2023-05-03T02:30:08.791Z,324.91
2023-05-03T02:35:24.554Z,324.73
2023-05-03T02:40:33.285Z,324.76
2023-05-03T02:45:42.165Z,325.10
2023-05-03T02:50:49.597Z,325.06
2023-05-03T02:55:56.905Z,324.91
2023-05-03T03:01:04.169Z,324.73
2023-05-03T03:06:11.557Z,325.07
2023-05-03T03:11:18.719Z,325.01
2023-05-03T03:16:26.042Z,325.10
2023-05-03T03:21:33.164Z,325.80
2023-05-03T03:26:40.366Z,325.86
2023-05-03T03:31:47.558Z,326.03
2023-05-03T03:36:55.809Z,326.57
2023-05-03T03:42:03.098Z,326.33
2023-05-03T03:47:10.287Z,327.09
2023-05-03T03:52:17.605Z,327.35
2023-05-03T03:57:24.856Z,326.88
2023-05-03T04:02:32.175Z,326.57
2023-05-03T04:07:39.348Z,326.03
2023-05-03T04:12:46.528Z,325.56
2023-05-03T04:17:53.766Z,325.33
2023-05-03T04:23:01.001Z,325.43
2023-05-03T04:28:08.188Z,325.43
2023-05-03T04:33:15.336Z,326.03
2023-05-03T04:38:22.525Z,325.41
2023-05-03T04:43:29.842Z,325.34
2023-05-03T04:48:37.022Z,325.24
2023-05-03T04:53:44.192Z,324.68
2023-05-03T04:58:51.396Z,324.76
2023-05-03T05:03:58.664Z,324.55
2023-05-03T05:09:05.755Z,324.43
2023-05-03T05:14:12.948Z,323.97
2023-05-03T05:19:20.134Z,324.20
2023-05-03T05:24:27.406Z,324.24
2023-05-03T05:29:34.610Z,324.12
2023-05-03T05:34:45.676Z,323.40
2023-05-03T05:39:49.045Z,322.80
2023-05-03T05:44:56.259Z,322.92
2023-05-03T05:50:05.869Z,323.16
2023-05-03T05:55:10.641Z,322.35
2023-05-03T06:00:17.848Z,322.08
2023-05-03T06:05:25.050Z,321.26
2023-05-03T06:10:32.176Z,321.33
2023-05-03T06:15:39.387Z,321.04
2023-05-03T06:20:46.546Z,321.75
2023-05-03T06:25:53.717Z,321.83
2023-05-03T06:31:01.006Z,321.83
2023-05-03T06:36:08.096Z,321.61
2023-05-03T06:41:15.304Z,321.41
2023-05-03T06:46:23.617Z,321.26
2023-05-03T06:51:30.748Z,321.27
2023-05-03T06:56:37.982Z,320.68
2023-05-03T07:01:45.231Z,321.25
2023-05-03T07:06:56.326Z,321.68
2023-05-03T07:11:59.518Z,322.07
2023-05-03T07:17:07.671Z,322.75
2023-05-03T07:22:14.578Z,323.45
2023-05-03T07:27:21.770Z,323.42
2023-05-03T07:32:29.067Z,323.36
2023-05-03T07:37:36.182Z,323.47
2023-05-03T07:42:43.409Z,323.78
2023-05-03T07:47:50.738Z,324.04
2023-05-03T07:52:57.787Z,325.12
2023-05-03T07:58:05.066Z,324.86
2023-05-03T08:03:12.548Z,326.08
2023-05-03T08:08:19.417Z,326.92
2023-05-03T08:13:26.641Z,327.08
2023-05-03T08:18:33.939Z,327.15
2023-05-03T08:23:41.217Z,327.48
2023-05-03T08:28:48.483Z,327.57
2023-05-03T08:33:55.662Z,327.93
2023-05-03T08:39:02.842Z,327.79
2023-05-03T08:44:10.063Z,328.32
2023-05-03T08:49:17.338Z,329.45
2023-05-03T08:54:24.518Z,329.78
2023-05-03T08:59:31.688Z,330.22
2023-05-03T09:04:38.967Z,330.94
2023-05-03T09:09:47.238Z,331.58
2023-05-03T09:14:53.232Z,332.22
2023-05-03T09:20:00.836Z,332.66
2023-05-03T09:25:07.731Z,332.78
2023-05-03T09:30:14.979Z,332.82
2023-05-03T09:35:22.258Z,333.56
2023-05-03T09:40:29.482Z,333.64
2023-05-03T09:45:36.729Z,333.56
2023-05-03T09:50:43.889Z,334.27
2023-05-03T09:55:51.086Z,334.31
2023-05-03T10:00:58.251Z,334.26
2023-05-03T10:06:05.497Z,333.98
2023-05-03T10:11:12.572Z,334.19
2023-05-03T10:16:55.475Z,334.54
2023-05-03T10:22:03.021Z,334.53
2023-05-03T10:27:10.190Z,334.35
2023-05-03T10:32:17.458Z,334.51
2023-05-03T10:37:24.746Z,334.10
2023-05-03T10:42:31.912Z,334.77
2023-05-03T10:47:39.149Z,335.08
2023-05-03T10:52:46.348Z,334.55
2023-05-03T10:57:53.458Z,335.51
2023-05-03T11:03:00.685Z,335.84
2023-05-03T11:08:07.964Z,336.43
2023-05-03T11:13:15.031Z,336.06
2023-05-03T11:18:22.202Z,336.98
2023-05-03T11:23:29.516Z,337.13
2023-05-03T11:28:36.656Z,337.52
2023-05-03T11:33:44.628Z,337.88
2023-05-03T11:38:51.079Z,337.72
2023-05-03T11:44:14.481Z,338.66
2023-05-03T11:49:05.429Z,338.09
2023-05-03T11:54:24.178Z,338.78
2023-05-03T11:59:19.987Z,338.77
2023-05-03T12:04:27.312Z,339.08
2023-05-03T12:09:35.571Z,339.31
2023-05-03T12:14:42.047Z,340.19
2023-05-03T12:19:49.256Z,340.18
2023-05-03T12:24:58.329Z,340.41
2023-05-03T12:30:03.890Z,340.50
2023-05-03T12:35:13.949Z,340.31
2023-05-03T12:40:31.670Z,341.61
2023-05-03T12:45:28.198Z,342.01
2023-05-03T12:50:32.707Z,342.15
2023-05-03T12:55:43.733Z,342.48
2023-05-03T13:01:15.982Z,342.88
2023-05-03T13:05:54.074Z,343.93
2023-05-03T13:11:01.277Z,343.73
2023-05-03T13:16:08.280Z,344.39
2023-05-03T13:21:15.448Z,344.15
2023-05-03T13:26:22.674Z,346.00
2023-05-03T13:31:29.806Z,346.25
2023-05-03T13:36:37.023Z,347.17
2023-05-03T13:41:45.350Z,347.48
2023-05-03T13:46:51.362Z,347.84
2023-05-03T13:51:58.570Z,348.00
2023-05-03T13:57:05.803Z,348.92
2023-05-03T14:02:12.948Z,348.63
2023-05-03T14:07:20.125Z,348.55
2023-05-03T14:12:27.656Z,349.61
2023-05-03T14:17:34.576Z,348.89
2023-05-03T14:22:41.669Z,349.54
2023-05-03T14:27:49.074Z,349.41
2023-05-03T14:32:56.177Z,349.78
2023-05-03T14:38:03.317Z,349.63
2023-05-03T14:43:10.565Z,350.40
2023-05-03T14:48:17.807Z,350.19
2023-05-03T14:53:25.121Z,350.27
2023-05-03T14:58:32.629Z,350.74
2023-05-03T15:03:40.108Z,350.16
2023-05-03T15:08:47.379Z,350.75
2023-05-03T15:13:54.735Z,351.00
2023-05-03T15:19:01.971Z,351.19
2023-05-03T15:24:09.211Z,350.61
2023-05-03T15:29:16.693Z,349.96
2023-05-03T15:34:30.346Z,350.85
2023-05-03T15:39:38.272Z,350.00
2023-05-03T15:44:58.230Z,350.39
2023-05-03T15:50:16.145Z,350.39
2023-05-03T15:55:23.623Z,350.59
2023-05-03T16:00:31.394Z,349.93
2023-05-03T16:05:43.690Z,349.77
2023-05-03T16:11:12.814Z,350.97
2023-05-03T16:16:29.535Z,351.30
2023-05-03T16:21:19.880Z,351.34
2023-05-03T16:27:06.010Z,350.10
2023-05-03T16:32:34.401Z,351.96
2023-05-03T16:37:52.201Z,352.08
2023-05-03T16:42:59.865Z,352.13
2023-05-03T16:48:09.060Z,351.99
2023-05-03T16:53:14.573Z,351.92
2023-05-03T16:58:21.918Z,351.46
2023-05-03T17:03:29.371Z,351.35
2023-05-03T17:08:36.454Z,351.58
2023-05-03T17:13:43.664Z,351.34
2023-05-03T17:18:50.958Z,351.41
2023-05-03T17:23:58.194Z,351.36
2023-05-03T17:29:05.548Z,351.09
2023-05-03T17:34:12.977Z,351.50
2023-05-03T17:40:17.432Z,351.24
2023-05-03T17:45:44.069Z,351.20
2023-05-03T17:51:26.484Z,350.89
2023-05-03T17:57:09.213Z,350.99
2023-05-03T18:02:51.801Z,350.77
2023-05-03T18:08:11.594Z,350.39
2023-05-03T18:13:35.692Z,349.81
2023-05-03T18:19:51.952Z,349.89
2023-05-03T18:24:09.064Z,349.35
2023-05-03T18:29:16.042Z,349.09
2023-05-03T18:34:24.586Z,349.28
2023-05-03T18:39:38.120Z,348.93
2023-05-03T18:45:26.226Z,347.87
2023-05-03T18:51:08.773Z,347.93
2023-05-03T18:57:01.978Z,347.60
2023-05-03T19:02:15.723Z,347.66
2023-05-03T19:07:48.647Z,347.08
2023-05-03T19:13:01.993Z,346.83
2023-05-03T19:24:00.324Z,346.55
2023-05-03T19:29:44.217Z,346.13
2023-05-03T19:35:32.372Z,346.54
2023-05-03T19:41:14.929Z,346.74
2023-05-03T19:52:10.934Z,346.10
2023-05-03T19:57:19.976Z,345.76
2023-05-03T20:02:28.201Z,345.81
2023-05-03T20:07:36.277Z,345.20
2023-05-03T20:12:43.937Z,344.45
2023-05-03T20:17:51.244Z,344.84
2023-05-03T20:22:58.531Z,344.40
2023-05-03T20:28:05.745Z,344.49
2023-05-03T20:33:13.095Z,345.10
2023-05-03T20:38:20.486Z,345.18
2023-05-03T20:43:27.862Z,345.45
2023-05-03T20:48:35.184Z,345.27
2023-05-03T20:53:42.669Z,345.13
2023-05-03T20:58:49.713Z,345.31
2023-05-03T21:03:57.119Z,345.25
2023-05-03T21:09:04.339Z,345.83
2023-05-03T21:14:11.503Z,345.66
2023-05-03T21:19:18.722Z,345.97
2023-05-03T21:24:26.008Z,345.64
2023-05-03T21:29:33.157Z,345.69
2023-05-03T21:34:40.432Z,345.69
2023-05-03T21:39:58.001Z,345.66
2023-05-03T21:44:54.788Z,345.67
2023-05-03T21:50:02.351Z,345.70
2023-05-03T21:55:09.388Z,345.95
2023-05-03T22:00:16.561Z,345.49
2023-05-03T22:05:23.724Z,346.10
2023-05-03T22:10:30.930Z,346.66
2023-05-03T22:15:38.233Z,346.61
2023-05-03T22:20:45.399Z,346.61
2023-05-03T22:25:52.658Z,346.99
2023-05-03T22:30:59.754Z,346.95
2023-05-03T22:36:06.960Z,346.85
2023-05-03T22:41:14.150Z,346.77
2023-05-03T22:46:21.493Z,347.10
2023-05-03T22:51:28.517Z,347.05
2023-05-03T22:56:35.775Z,346.98
2023-05-03T23:01:42.955Z,347.51
2023-05-03T23:06:50.083Z,347.65
2023-05-03T23:11:57.270Z,347.83
2023-05-03T23:17:04.522Z,347.89
2023-05-03T23:22:11.705Z,348.34
2023-05-03T23:27:18.924Z,348.49
2023-05-03T23:32:26.157Z,348.73
2023-05-03T23:37:33.273Z,348.29
2023-05-03T23:42:40.478Z,348.43
2023-05-03T23:47:47.688Z,348.94
2023-05-03T23:52:54.826Z,349.73
2023-05-03T23:58:02.134Z,349.97
